Port Morien, Canada
Current Conditions -  °F | °C
As of 3:00 PM on Saturday 25 Oct 2014 (Local Time) from CYQY Reporting Station
Drizzle Drizzle  
Wind Chill: 52°   Ceiling: 300
Heat Index: 52°   Visibility: 0.75mi
Dew Point: 52°   Wind: 10mph
Humidity: 100%   Direction: 40°NE
Pressure: 29.37"   Gusts: 18mph
Location:  46.13°N, 59.88°W
Report Text: CYQY 251800Z 04009G16KT 3/4SM R07/6000FT/N -DZ BR BKN003 OVC014 11/11 A2937 RMK ST6ST2 SLP947 DENSITY ALT 400FT
Loading
Personal Weather Stations






























Interactive Weather Map
Tropical Storm Tracking
New forecast layout! Learn more

10-Day Weather Forecast

Advertisements
Track Severe Weather on mobile